Pullman, Washington
Current Conditions -  °F | °C
As of 6:53 AM on Sunday 21 Dec 2014 (Local Time) from KPUW Reporting Station
Broken Clouds Broken Clouds  
Wind Chill: 38°   Ceiling: 7000
Heat Index: 46°   Visibility: 10mi
Dew Point: 41°   Wind: 22mph
Humidity: 83%   Direction: 250°WSW
Pressure: 29.71"   Gusts: 29mph
Location:  46.73°N, 117.18°W
Report Text: KPUW 211453Z AUTO 25019G25KT 10SM FEW049 BKN070 08/05 A2971 RMK AO2 PK WND 26031/1355 SLP069 T00780050 51041
Loading
Personal Weather Stations






























Interactive Weather Map New forecast layout! Learn more

10-Day Weather Forecast

Advertisements
Track Severe Weather on mobile